createdAt,value
2016-12-26T00:00:52.958Z,1023.2
2016-12-26T00:01:56.414Z,1023.3
2016-12-26T00:02:59.366Z,1023.2
2016-12-26T00:04:02.814Z,1023.3
2016-12-26T00:05:06.273Z,1023.3
2016-12-26T00:06:09.247Z,1023.3
2016-12-26T00:07:12.699Z,1023.3
2016-12-26T00:08:16.152Z,1023.3
2016-12-26T00:09:19.100Z,1023.2
2016-12-26T00:10:22.547Z,1023.3
2016-12-26T00:12:29.410Z,1023.3
2016-12-26T00:13:32.360Z,1023.3
2016-12-26T00:14:35.810Z,1023.2
2016-12-26T00:15:39.262Z,1023.2
2016-12-26T00:16:42.209Z,1023.2
2016-12-26T00:17:45.658Z,1023.2
2016-12-26T00:18:49.119Z,1023.2
2016-12-26T00:19:52.066Z,1023.2
2016-12-26T00:20:55.515Z,1023.2
2016-12-26T00:21:58.960Z,1023.2
2016-12-26T00:23:02.405Z,1023.2
2016-12-26T00:24:05.359Z,1023.2
2016-12-26T00:26:12.222Z,1023.2
2016-12-26T00:27:15.168Z,1023.2
2016-12-26T00:28:18.622Z,1023.2
2016-12-26T00:29:22.074Z,1023.2
2016-12-26T00:30:25.022Z,1023.2
2016-12-26T00:31:28.478Z,1023.2
2016-12-26T00:32:31.928Z,1023.2
2016-12-26T00:33:35.381Z,1023.2
2016-12-26T00:34:38.327Z,1023.2
2016-12-26T00:35:41.779Z,1023.1
2016-12-26T00:36:45.231Z,1023.2
2016-12-26T00:37:48.180Z,1023.3
2016-12-26T00:38:51.632Z,1023.3
2016-12-26T00:39:55.085Z,1023.2
2016-12-26T00:40:58.037Z,1023.3
2016-12-26T00:42:01.486Z,1023.2
2016-12-26T00:43:04.939Z,1023.2
2016-12-26T00:44:08.388Z,1023.2
2016-12-26T00:45:11.333Z,1023.2
2016-12-26T00:46:14.783Z,1023.2
2016-12-26T00:47:18.236Z,1023.2
2016-12-26T00:48:21.181Z,1023.2
2016-12-26T00:49:24.631Z,1023.1
2016-12-26T00:50:28.085Z,1023.1
2016-12-26T00:51:31.026Z,1023.2
2016-12-26T00:52:34.477Z,1023.2
2016-12-26T00:53:37.930Z,1023.2
2016-12-26T00:54:41.042Z,1023.2
2016-12-26T00:55:44.201Z,1023.2
2016-12-26T00:56:47.656Z,1023.2
2016-12-26T00:57:51.105Z,1023.1
2016-12-26T00:59:57.463Z,1023.1
2016-12-26T01:01:00.910Z,1023.2
2016-12-26T01:02:04.364Z,1023.1
2016-12-26T01:03:07.350Z,1023.2
2016-12-26T01:04:10.803Z,1023.2
2016-12-26T01:05:14.249Z,1023.2
2016-12-26T01:06:17.195Z,1023.2
2016-12-26T01:07:20.647Z,1023.3
2016-12-26T01:08:24.102Z,1023.3
2016-12-26T01:09:27.554Z,1023.3
2016-12-26T01:11:33.913Z,1023.3
2016-12-26T01:12:37.366Z,1023.3
2016-12-26T01:13:40.309Z,1023.3
2016-12-26T01:14:43.759Z,1023.4
2016-12-26T01:15:47.207Z,1023.3
2016-12-26T01:16:50.661Z,1023.3
2016-12-26T01:17:53.607Z,1023.3
2016-12-26T01:18:57.055Z,1023.4
2016-12-26T01:20:00.509Z,1023.4
2016-12-26T01:21:03.519Z,1023.4
2016-12-26T01:22:06.964Z,1023.4
2016-12-26T01:23:10.414Z,1023.4
2016-12-26T01:24:13.384Z,1023.4
2016-12-26T01:25:16.837Z,1023.4
2016-12-26T01:26:20.286Z,1023.4
2016-12-26T01:27:23.233Z,1023.4
2016-12-26T01:28:26.681Z,1023.4
2016-12-26T01:29:30.130Z,1023.4
2016-12-26T01:30:33.077Z,1023.3
2016-12-26T01:31:36.529Z,1023.3
2016-12-26T01:32:39.979Z,1023.4
2016-12-26T01:33:43.425Z,1023.3
2016-12-26T01:34:46.371Z,1023.3
2016-12-26T01:35:49.833Z,1023.3
2016-12-26T01:36:52.922Z,1023.3
2016-12-26T01:37:56.372Z,1023.3
2016-12-26T01:38:59.821Z,1023.3
2016-12-26T01:40:02.767Z,1023.3
2016-12-26T01:41:06.225Z,1023.3
2016-12-26T01:42:09.683Z,1023.3
2016-12-26T01:43:13.131Z,1023.2
2016-12-26T01:44:16.080Z,1023.2
2016-12-26T01:45:19.525Z,1023.3
2016-12-26T01:46:22.978Z,1023.2
2016-12-26T01:47:25.926Z,1023.3
2016-12-26T01:48:29.378Z,1023.3
2016-12-26T01:49:32.832Z,1023.3
2016-12-26T01:50:35.781Z,1023.3
2016-12-26T01:51:39.234Z,1023.3
2016-12-26T01:52:42.684Z,1023.4
2016-12-26T01:53:46.136Z,1023.3
2016-12-26T01:54:49.116Z,1023.3
2016-12-26T01:55:52.565Z,1023.3
2016-12-26T01:56:56.017Z,1023.3
2016-12-26T01:57:58.968Z,1023.4
2016-12-26T01:59:02.417Z,1023.3
2016-12-26T02:00:05.495Z,1023.3
2016-12-26T02:01:08.945Z,1023.3
2016-12-26T02:02:12.393Z,1023.3
2016-12-26T02:03:15.839Z,1023.3
2016-12-26T02:04:18.783Z,1023.3
2016-12-26T02:05:22.233Z,1023.2
2016-12-26T02:06:25.688Z,1023.2
2016-12-26T02:07:28.638Z,1023.3
2016-12-26T02:08:32.091Z,1023.3
2016-12-26T02:09:35.540Z,1023.2
2016-12-26T02:10:38.484Z,1023.2
2016-12-26T02:11:41.959Z,1023.3
2016-12-26T02:12:45.410Z,1023.3
2016-12-26T02:13:48.358Z,1023.2
2016-12-26T02:14:51.811Z,1023.3
2016-12-26T02:15:55.265Z,1023.2
2016-12-26T02:16:58.716Z,1023.3
2016-12-26T02:19:05.076Z,1023.3
2016-12-26T02:20:08.523Z,1023.3
2016-12-26T02:21:11.472Z,1023.3
2016-12-26T02:22:14.922Z,1023.3
2016-12-26T02:23:18.374Z,1023.3
2016-12-26T02:24:21.462Z,1023.3
2016-12-26T02:25:24.911Z,1023.4
2016-12-26T02:26:28.361Z,1023.3
2016-12-26T02:27:31.305Z,1023.4
2016-12-26T02:28:34.891Z,1023.4
2016-12-26T02:29:38.340Z,1023.4
2016-12-26T02:30:41.283Z,1023.4
2016-12-26T02:32:48.147Z,1023.5
2016-12-26T02:33:51.097Z,1023.4
2016-12-26T02:34:54.546Z,1023.4
2016-12-26T02:35:57.993Z,1023.4
2016-12-26T02:37:01.442Z,1023.3
2016-12-26T02:38:04.386Z,1023.4
2016-12-26T02:39:07.831Z,1023.4
2016-12-26T02:40:11.285Z,1023.4
2016-12-26T02:41:14.236Z,1023.3
2016-12-26T02:42:17.687Z,1023.3
2016-12-26T02:43:21.134Z,1023.3
2016-12-26T02:44:24.074Z,1023.2
2016-12-26T02:45:27.519Z,1023.3
2016-12-26T02:46:30.970Z,1023.3
2016-12-26T02:47:34.423Z,1023.3
2016-12-26T02:48:37.372Z,1023.3
2016-12-26T02:49:40.822Z,1023.2
2016-12-26T02:50:44.274Z,1023.2
2016-12-26T02:51:47.288Z,1023.3
2016-12-26T02:52:50.737Z,1023.2
2016-12-26T02:53:54.182Z,1023.1
2016-12-26T02:54:57.129Z,1023.2
2016-12-26T02:56:00.581Z,1023.2
2016-12-26T02:57:04.034Z,1023.1
2016-12-26T02:58:06.983Z,1023.1
2016-12-26T02:59:10.437Z,1023.1
2016-12-26T03:00:13.891Z,1023.1
2016-12-26T03:01:17.339Z,1023.1
2016-12-26T03:02:20.289Z,1023.1
2016-12-26T03:03:23.737Z,1023.1
2016-12-26T03:04:27.187Z,1023
2016-12-26T03:05:30.136Z,1023
2016-12-26T03:06:33.582Z,1023
2016-12-26T03:07:37.035Z,1023
2016-12-26T03:08:40.042Z,1023
2016-12-26T03:09:43.495Z,1022.9
2016-12-26T03:10:46.952Z,1023
2016-12-26T03:11:49.898Z,1023
2016-12-26T03:12:53.352Z,1023
2016-12-26T03:13:56.812Z,1023
2016-12-26T03:15:00.258Z,1023
2016-12-26T03:16:03.207Z,1023
2016-12-26T03:17:06.661Z,1022.9
2016-12-26T03:18:10.109Z,1022.9
2016-12-26T03:19:13.051Z,1023
2016-12-26T03:20:16.505Z,1022.9
2016-12-26T03:21:19.954Z,1022.9
2016-12-26T03:22:22.928Z,1023
2016-12-26T03:23:26.382Z,1022.9
2016-12-26T03:24:29.836Z,1022.9
2016-12-26T03:25:32.791Z,1023
2016-12-26T03:26:36.242Z,1023
2016-12-26T03:28:43.109Z,1023
2016-12-26T03:29:46.053Z,1022.9
2016-12-26T03:31:53.056Z,1022.9
2016-12-26T03:32:56.001Z,1023
2016-12-26T03:33:59.452Z,1023
2016-12-26T03:35:02.908Z,1023
2016-12-26T03:36:05.864Z,1023
2016-12-26T03:37:09.315Z,1022.9
2016-12-26T03:38:12.769Z,1023
2016-12-26T03:39:15.714Z,1022.9
2016-12-26T03:40:19.165Z,1022.9
2016-12-26T03:41:22.617Z,1022.9
2016-12-26T03:42:26.080Z,1022.9
2016-12-26T03:43:29.024Z,1022.9
2016-12-26T03:44:32.614Z,1022.9
2016-12-26T03:45:35.565Z,1022.9
2016-12-26T03:46:39.026Z,1022.9
2016-12-26T03:47:42.471Z,1022.9
2016-12-26T03:48:45.445Z,1022.9
2016-12-26T03:49:48.897Z,1022.9
2016-12-26T03:50:52.347Z,1022.9
2016-12-26T03:52:58.711Z,1022.9
2016-12-26T03:54:02.159Z,1022.9
2016-12-26T03:55:05.609Z,1022.9
2016-12-26T03:56:08.563Z,1022.9
2016-12-26T03:57:12.016Z,1022.8
2016-12-26T03:58:15.469Z,1022.8
2016-12-26T03:59:18.424Z,1022.9
2016-12-26T04:00:21.905Z,1022.8
2016-12-26T04:01:25.357Z,1022.8
2016-12-26T04:02:28.811Z,1022.8
2016-12-26T04:03:31.760Z,1022.8
2016-12-26T04:04:35.279Z,1022.9
2016-12-26T04:05:38.227Z,1022.8
2016-12-26T04:06:41.746Z,1022.8
2016-12-26T04:07:45.204Z,1022.8
2016-12-26T04:08:48.158Z,1022.8
2016-12-26T04:09:51.751Z,1022.8
2016-12-26T04:10:55.205Z,1022.8
2016-12-26T04:11:58.158Z,1022.8
2016-12-26T04:13:01.375Z,1022.7
2016-12-26T04:14:04.831Z,1022.7
2016-12-26T04:15:08.281Z,1022.8
2016-12-26T04:16:11.729Z,1022.7
2016-12-26T04:17:14.681Z,1022.8
2016-12-26T04:18:18.133Z,1022.8
2016-12-26T04:19:21.586Z,1022.7
2016-12-26T04:20:24.532Z,1022.8
2016-12-26T04:21:28.021Z,1022.7
2016-12-26T04:22:31.471Z,1022.7
2016-12-26T04:24:37.833Z,1022.8
2016-12-26T04:25:41.278Z,1022.7
2016-12-26T04:26:44.731Z,1022.7
2016-12-26T04:27:47.685Z,1022.7
2016-12-26T04:28:51.136Z,1022.7
2016-12-26T04:29:54.605Z,1022.7
2016-12-26T04:30:57.554Z,1022.7
2016-12-26T04:32:01.009Z,1022.7
2016-12-26T04:33:04.456Z,1022.7
2016-12-26T04:34:07.403Z,1022.7
2016-12-26T04:35:10.855Z,1022.7
2016-12-26T04:36:14.304Z,1022.6
2016-12-26T04:37:17.754Z,1022.5
2016-12-26T04:38:20.704Z,1022.6
2016-12-26T04:39:24.165Z,1022.7
2016-12-26T04:40:27.618Z,1022.7
2016-12-26T04:41:30.588Z,1022.6
2016-12-26T04:42:34.043Z,1022.7
2016-12-26T04:43:37.503Z,1022.6
2016-12-26T04:44:40.454Z,1022.7
2016-12-26T04:45:43.909Z,1022.7
2016-12-26T04:46:47.360Z,1022.7
2016-12-26T04:47:50.309Z,1022.7
2016-12-26T04:48:53.759Z,1022.7
2016-12-26T04:49:57.209Z,1022.6
2016-12-26T04:51:00.659Z,1022.6
2016-12-26T04:52:03.608Z,1022.7
2016-12-26T04:53:07.061Z,1022.7
2016-12-26T04:54:10.514Z,1022.7
2016-12-26T04:55:13.462Z,1022.7
2016-12-26T04:56:16.916Z,1022.8
2016-12-26T04:57:20.370Z,1022.7
2016-12-26T04:58:23.322Z,1022.7
2016-12-26T04:59:26.781Z,1022.7
2016-12-26T05:01:33.646Z,1022.7
2016-12-26T05:02:36.592Z,1022.7
2016-12-26T05:03:40.046Z,1022.6
2016-12-26T05:04:43.508Z,1022.6
2016-12-26T05:05:46.457Z,1022.7
2016-12-26T05:06:49.911Z,1022.7
2016-12-26T05:07:53.363Z,1022.7
2016-12-26T05:08:56.309Z,1022.6
2016-12-26T05:09:59.762Z,1022.6
2016-12-26T05:11:03.215Z,1022.6
2016-12-26T05:12:06.669Z,1022.6
2016-12-26T05:13:09.614Z,1022.6
2016-12-26T05:14:13.059Z,1022.5
2016-12-26T05:15:16.512Z,1022.6
2016-12-26T05:16:19.459Z,1022.5
2016-12-26T05:17:22.920Z,1022.6
2016-12-26T05:18:26.370Z,1022.6
2016-12-26T05:19:29.826Z,1022.7
2016-12-26T05:20:32.772Z,1022.7
2016-12-26T05:21:36.225Z,1022.7
2016-12-26T05:22:39.678Z,1022.7
2016-12-26T05:23:42.625Z,1022.6
2016-12-26T05:24:46.077Z,1022.6
2016-12-26T05:25:49.160Z,1022.5
2016-12-26T05:26:52.614Z,1022.6
2016-12-26T05:27:56.068Z,1022.6
2016-12-26T05:28:59.517Z,1022.6
2016-12-26T05:30:02.466Z,1022.6
2016-12-26T05:31:05.917Z,1022.6
2016-12-26T05:32:09.368Z,1022.7
2016-12-26T05:33:12.316Z,1022.7
2016-12-26T05:34:15.799Z,1022.7
2016-12-26T05:35:19.253Z,1022.8
2016-12-26T05:36:22.204Z,1022.8
2016-12-26T05:37:25.661Z,1022.8
2016-12-26T05:38:29.114Z,1022.7
2016-12-26T05:39:32.569Z,1022.7
2016-12-26T05:40:35.522Z,1022.7
2016-12-26T05:41:38.974Z,1022.7
2016-12-26T05:42:42.428Z,1022.6
2016-12-26T05:43:45.377Z,1022.7
2016-12-26T05:44:48.825Z,1022.7
2016-12-26T05:45:52.276Z,1022.8
2016-12-26T05:46:55.225Z,1022.7
2016-12-26T05:47:58.679Z,1022.7
2016-12-26T05:49:02.135Z,1022.7
2016-12-26T05:50:05.585Z,1022.7
2016-12-26T05:51:08.535Z,1022.7
2016-12-26T05:52:11.984Z,1022.6
2016-12-26T05:53:15.434Z,1022.7
2016-12-26T05:54:18.382Z,1022.6
2016-12-26T05:55:21.837Z,1022.6
2016-12-26T05:56:25.289Z,1022.7
2016-12-26T05:57:28.742Z,1022.6
2016-12-26T05:58:31.688Z,1022.6
2016-12-26T05:59:35.150Z,1022.6
2016-12-26T06:00:38.602Z,1022.5
2016-12-26T06:01:41.552Z,1022.6
2016-12-26T06:02:45.002Z,1022.5
2016-12-26T06:03:48.487Z,1022.6
2016-12-26T06:04:51.434Z,1022.5
2016-12-26T06:05:54.891Z,1022.5
2016-12-26T06:06:58.339Z,1022.6
2016-12-26T06:08:01.783Z,1022.6
2016-12-26T06:09:04.731Z,1022.6
2016-12-26T06:10:08.178Z,1022.6
2016-12-26T06:11:11.629Z,1022.7
2016-12-26T06:12:14.577Z,1022.7
2016-12-26T06:13:18.027Z,1022.7
2016-12-26T06:14:21.476Z,1022.6
2016-12-26T06:15:24.451Z,1022.7
2016-12-26T06:17:31.316Z,1022.6
2016-12-26T06:18:34.762Z,1022.6
2016-12-26T06:19:37.708Z,1022.7
2016-12-26T06:20:41.157Z,1022.6
2016-12-26T06:21:44.614Z,1022.7
2016-12-26T06:22:47.564Z,1022.6
2016-12-26T06:23:51.024Z,1022.6
2016-12-26T06:24:54.473Z,1022.6
2016-12-26T06:25:57.929Z,1022.5
2016-12-26T06:27:00.881Z,1022.6
2016-12-26T06:28:04.346Z,1022.5
2016-12-26T06:29:07.441Z,1022.5
2016-12-26T06:30:10.893Z,1022.6
2016-12-26T06:31:14.340Z,1022.5
2016-12-26T06:32:17.796Z,1022.5
2016-12-26T06:33:20.747Z,1022.5
2016-12-26T06:34:24.201Z,1022.5
2016-12-26T06:36:30.558Z,1022.6
2016-12-26T06:37:34.019Z,1022.5
2016-12-26T06:38:37.500Z,1022.6
2016-12-26T06:39:40.456Z,1022.6
2016-12-26T06:40:43.913Z,1022.6
2016-12-26T06:41:47.373Z,1022.6
2016-12-26T06:42:50.825Z,1022.7
2016-12-26T06:43:53.777Z,1022.7
2016-12-26T06:44:57.228Z,1022.7
2016-12-26T06:46:00.711Z,1022.7
2016-12-26T06:47:03.660Z,1022.6
2016-12-26T06:48:07.247Z,1022.6
2016-12-26T06:49:10.193Z,1022.6
2016-12-26T06:50:13.644Z,1022.5
2016-12-26T06:51:17.090Z,1022.6
2016-12-26T06:52:20.540Z,1022.6
2016-12-26T06:53:23.498Z,1022.6
2016-12-26T06:54:26.952Z,1022.5
2016-12-26T06:55:30.403Z,1022.5
2016-12-26T06:56:33.358Z,1022.6
2016-12-26T06:57:36.815Z,1022.5
2016-12-26T06:58:40.269Z,1022.6
2016-12-26T06:59:43.716Z,1022.5
2016-12-26T07:00:46.670Z,1022.6
2016-12-26T07:01:50.123Z,1022.6
2016-12-26T07:02:53.574Z,1022.5
2016-12-26T07:03:56.523Z,1022.5
2016-12-26T07:04:59.971Z,1022.5
2016-12-26T07:06:03.420Z,1022.5
2016-12-26T07:07:06.877Z,1022.6
2016-12-26T07:08:09.829Z,1022.6
2016-12-26T07:09:13.276Z,1022.6
2016-12-26T07:10:16.727Z,1022.6
2016-12-26T07:11:19.679Z,1022.6
2016-12-26T07:12:23.133Z,1022.6
2016-12-26T07:13:26.585Z,1022.6
2016-12-26T07:14:29.532Z,1022.5
2016-12-26T07:15:32.985Z,1022.5
2016-12-26T07:16:36.434Z,1022.6
2016-12-26T07:17:39.880Z,1022.6
2016-12-26T07:18:42.832Z,1022.5
2016-12-26T07:19:46.283Z,1022.7
2016-12-26T07:20:49.734Z,1022.6
2016-12-26T07:21:52.682Z,1022.6
2016-12-26T07:22:56.130Z,1022.6
2016-12-26T07:23:59.583Z,1022.6
2016-12-26T07:25:03.039Z,1022.6
2016-12-26T07:26:05.990Z,1022.6
2016-12-26T07:27:09.439Z,1022.6
2016-12-26T07:28:12.891Z,1022.7
2016-12-26T07:29:15.838Z,1022.7
2016-12-26T07:30:19.290Z,1022.7
2016-12-26T07:31:22.744Z,1022.7
2016-12-26T07:32:26.198Z,1022.7
2016-12-26T07:33:29.146Z,1022.7
2016-12-26T07:34:32.596Z,1022.7
2016-12-26T07:35:36.046Z,1022.7
2016-12-26T07:36:38.991Z,1022.7
2016-12-26T07:37:42.446Z,1022.7
2016-12-26T07:38:45.899Z,1022.7
2016-12-26T07:39:49.351Z,1022.7
2016-12-26T07:40:52.301Z,1022.8
2016-12-26T07:44:02.079Z,1022.7
2016-12-26T07:45:05.535Z,1022.6
2016-12-26T07:46:08.987Z,1022.6
2016-12-26T07:47:12.436Z,1022.6
2016-12-26T07:48:15.391Z,1022.7
2016-12-26T07:49:18.839Z,1022.6
2016-12-26T07:50:22.293Z,1022.7
2016-12-26T07:51:25.246Z,1022.7
2016-12-26T07:52:28.691Z,1022.7
2016-12-26T07:53:32.153Z,1022.7
2016-12-26T07:54:35.614Z,1022.8
2016-12-26T07:55:38.569Z,1022.8
2016-12-26T07:56:42.017Z,1022.8
2016-12-26T07:57:45.470Z,1022.7
2016-12-26T07:58:48.411Z,1022.6
2016-12-26T07:59:51.862Z,1022.6
2016-12-26T08:00:55.315Z,1022.6
2016-12-26T08:01:58.767Z,1022.6
2016-12-26T08:03:01.718Z,1022.6
2016-12-26T08:04:05.172Z,1022.5
2016-12-26T08:05:08.623Z,1022.5
2016-12-26T08:06:11.566Z,1022.5
2016-12-26T08:08:18.429Z,1022.5
2016-12-26T08:09:21.877Z,1022.5
2016-12-26T08:10:24.823Z,1022.4
2016-12-26T08:11:28.275Z,1022.5
2016-12-26T08:12:31.721Z,1022.4
2016-12-26T08:13:35.174Z,1022.4
2016-12-26T08:14:38.126Z,1022.4
2016-12-26T08:15:41.579Z,1022.3
2016-12-26T08:16:45.034Z,1022.3
2016-12-26T08:17:47.982Z,1022.3
2016-12-26T08:18:51.455Z,1022.4
2016-12-26T08:19:54.915Z,1022.4
2016-12-26T08:20:57.861Z,1022.2
2016-12-26T08:22:01.314Z,1022.4
2016-12-26T08:23:04.767Z,1022.5
2016-12-26T08:24:08.225Z,1022.4
2016-12-26T08:25:11.171Z,1022.4
2016-12-26T08:26:14.621Z,1022.5
2016-12-26T08:27:18.070Z,1022.4
2016-12-26T08:28:21.017Z,1022.4
2016-12-26T08:29:24.473Z,1022.4
2016-12-26T08:30:27.923Z,1022.5
2016-12-26T08:31:31.379Z,1022.5
2016-12-26T08:32:34.326Z,1022.6
2016-12-26T08:33:37.783Z,1022.5
2016-12-26T08:34:41.233Z,1022.5
2016-12-26T08:35:44.184Z,1022.5
2016-12-26T08:36:47.686Z,1022.5
2016-12-26T08:37:51.138Z,1022.5
2016-12-26T08:38:54.591Z,1022.4
2016-12-26T08:39:57.542Z,1022.4
2016-12-26T08:41:00.999Z,1022.3
2016-12-26T08:42:04.456Z,1022.4
2016-12-26T08:44:10.816Z,1022.3
2016-12-26T08:45:14.264Z,1022.4
2016-12-26T08:46:17.709Z,1022.3
2016-12-26T08:47:20.660Z,1022.4
2016-12-26T08:48:24.117Z,1022.3
2016-12-26T08:49:27.574Z,1022.3
2016-12-26T08:50:31.029Z,1022.3
2016-12-26T08:51:33.973Z,1022.5
2016-12-26T08:52:37.419Z,1022.5
2016-12-26T08:53:40.868Z,1022.4
2016-12-26T08:54:43.817Z,1022.4
2016-12-26T08:55:47.263Z,1022.4
2016-12-26T08:56:50.861Z,1022.4
2016-12-26T08:57:53.830Z,1022.4
2016-12-26T08:58:57.422Z,1022.4
2016-12-26T09:00:00.873Z,1022.4
2016-12-26T09:01:03.822Z,1022.4
2016-12-26T09:02:07.272Z,1022.3
2016-12-26T09:04:13.635Z,1022.3
2016-12-26T09:05:17.092Z,1022.3
2016-12-26T09:06:20.549Z,1022.2
2016-12-26T09:07:23.999Z,1022.2
2016-12-26T09:08:26.949Z,1022.2
2016-12-26T09:10:33.816Z,1022
2016-12-26T09:11:37.266Z,1022.2
2016-12-26T09:12:40.212Z,1022.2
2016-12-26T09:13:43.661Z,1022.2
2016-12-26T09:14:47.114Z,1022.2
2016-12-26T09:15:50.563Z,1022.3
2016-12-26T09:16:53.514Z,1022.3
2016-12-26T09:17:56.964Z,1022.2
2016-12-26T09:19:00.416Z,1022.2
2016-12-26T09:20:03.504Z,1022.2
2016-12-26T09:21:06.957Z,1022.2
2016-12-26T09:22:10.415Z,1022.2
2016-12-26T09:23:13.360Z,1022
2016-12-26T09:24:16.810Z,1022.2
2016-12-26T09:25:20.424Z,1022.3
2016-12-26T09:26:23.381Z,1022.3
2016-12-26T09:27:26.831Z,1022.2
2016-12-26T09:28:30.281Z,1022.2
2016-12-26T09:29:33.254Z,1022.2
2016-12-26T09:30:36.705Z,1022.2
2016-12-26T09:31:40.159Z,1022.2
2016-12-26T09:33:46.517Z,1022.2
2016-12-26T09:34:49.966Z,1022.2
2016-12-26T09:35:53.476Z,1022
2016-12-26T09:36:56.932Z,1022
2016-12-26T09:37:59.908Z,1022
2016-12-26T09:39:03.361Z,1022
2016-12-26T09:40:06.820Z,1022
2016-12-26T09:41:09.774Z,1022
2016-12-26T09:42:13.223Z,1022
2016-12-26T09:44:20.110Z,1022
2016-12-26T09:45:23.061Z,1021.9
2016-12-26T09:47:29.928Z,1022
2016-12-26T09:48:33.381Z,1022
2016-12-26T09:49:36.332Z,1022
2016-12-26T09:50:39.780Z,1021.9
2016-12-26T09:51:43.227Z,1022
2016-12-26T09:53:50.094Z,1021.9
2016-12-26T09:54:53.049Z,1022
2016-12-26T09:55:56.502Z,1021.9
2016-12-26T09:56:59.964Z,1021.8
2016-12-26T09:58:02.913Z,1021.9
2016-12-26T09:59:06.367Z,1021.8
2016-12-26T10:00:09.828Z,1021.8
2016-12-26T10:01:13.284Z,1021.9
2016-12-26T10:02:16.237Z,1021.9
2016-12-26T10:03:19.686Z,1021.9
2016-12-26T10:04:23.140Z,1021.8
2016-12-26T10:05:26.595Z,1021.8
2016-12-26T10:06:29.543Z,1021.8
2016-12-26T10:07:32.991Z,1021.8
2016-12-26T10:08:36.443Z,1021.8
2016-12-26T10:09:39.901Z,1021.9
2016-12-26T10:10:42.848Z,1021.8
2016-12-26T10:11:46.293Z,1021.7
2016-12-26T10:12:49.743Z,1021.7
2016-12-26T10:13:52.696Z,1021.7
2016-12-26T10:14:56.142Z,1021.7
2016-12-26T10:15:59.592Z,1021.7
2016-12-26T10:17:03.038Z,1021.7
2016-12-26T10:18:05.985Z,1021.7
2016-12-26T10:19:09.434Z,1021.6
2016-12-26T10:20:12.887Z,1021.6
2016-12-26T10:21:16.336Z,1021.6
2016-12-26T10:22:19.290Z,1021.6
2016-12-26T10:23:22.737Z,1021.7
2016-12-26T10:24:26.190Z,1021.6
2016-12-26T10:25:29.643Z,1021.7
2016-12-26T10:26:32.625Z,1021.6
2016-12-26T10:27:36.079Z,1021.6
2016-12-26T10:28:39.535Z,1021.7
2016-12-26T10:29:43.003Z,1021.7
2016-12-26T10:30:45.948Z,1021.6
2016-12-26T10:31:49.399Z,1021.6
2016-12-26T10:32:52.852Z,1021.5
2016-12-26T10:33:56.305Z,1021.5
2016-12-26T10:34:59.251Z,1021.5
2016-12-26T10:36:02.704Z,1021.5
2016-12-26T10:37:06.157Z,1021.5
2016-12-26T10:38:09.105Z,1021.6
2016-12-26T10:39:12.554Z,1021.5
2016-12-26T10:40:16.011Z,1021.5
2016-12-26T10:41:19.463Z,1021.5
2016-12-26T10:42:22.414Z,1021.4
2016-12-26T10:43:25.863Z,1021.4
2016-12-26T10:44:29.317Z,1021.4
2016-12-26T10:45:32.774Z,1021.5
2016-12-26T10:46:35.730Z,1021.5
2016-12-26T10:47:39.189Z,1021.4
2016-12-26T10:48:42.639Z,1021.4
2016-12-26T10:49:46.090Z,1021.3
2016-12-26T10:50:49.036Z,1021.4
2016-12-26T10:51:52.488Z,1021.3
2016-12-26T10:52:55.946Z,1021.4
2016-12-26T10:53:59.395Z,1021.3
2016-12-26T10:55:02.347Z,1021.4
2016-12-26T10:56:05.799Z,1021.4
2016-12-26T10:57:09.251Z,1021.4
2016-12-26T10:58:12.703Z,1021.2
2016-12-26T10:59:15.649Z,1021.2
2016-12-26T11:00:19.099Z,1021.2
2016-12-26T11:01:22.549Z,1021.2
2016-12-26T11:02:25.995Z,1021.2
2016-12-26T11:03:28.942Z,1021.1
2016-12-26T11:04:32.410Z,1021.2
2016-12-26T11:05:35.860Z,1021.2
2016-12-26T11:06:39.317Z,1021.2
2016-12-26T11:07:42.269Z,1021.2
2016-12-26T11:08:45.721Z,1021.2
2016-12-26T11:09:49.171Z,1021.1
2016-12-26T11:10:52.629Z,1021.2
2016-12-26T11:11:55.583Z,1021.1
2016-12-26T11:12:59.045Z,1021.1
2016-12-26T11:14:02.498Z,1021.1
2016-12-26T11:15:05.449Z,1021.2
2016-12-26T11:16:08.903Z,1021.1
2016-12-26T11:17:12.357Z,1021.1
2016-12-26T11:18:15.810Z,1021.1
2016-12-26T11:19:18.759Z,1021
2016-12-26T11:20:22.232Z,1020.9
2016-12-26T11:21:25.688Z,1021
2016-12-26T11:22:29.140Z,1020.9
2016-12-26T11:23:32.087Z,1020.9
2016-12-26T11:24:35.534Z,1020.9
2016-12-26T11:25:39.015Z,1020.8
2016-12-26T11:26:42.464Z,1020.8
2016-12-26T11:27:45.419Z,1020.8
2016-12-26T11:28:49.004Z,1020.8
2016-12-26T11:29:52.458Z,1020.7
2016-12-26T11:30:55.405Z,1020.7
2016-12-26T11:31:58.850Z,1020.8
2016-12-26T11:33:02.303Z,1020.8
2016-12-26T11:34:05.756Z,1020.7
2016-12-26T11:35:08.708Z,1020.7
2016-12-26T11:36:12.162Z,1020.6
2016-12-26T11:37:15.615Z,1020.6
2016-12-26T11:38:19.064Z,1020.6
2016-12-26T11:39:22.512Z,1020.6
2016-12-26T11:40:25.489Z,1020.7
2016-12-26T11:41:28.938Z,1020.7
2016-12-26T11:42:32.388Z,1020.7
2016-12-26T11:43:35.344Z,1020.6
2016-12-26T11:44:38.796Z,1020.7
2016-12-26T11:45:42.318Z,1020.6
2016-12-26T11:46:45.769Z,1020.5
2016-12-26T11:47:48.760Z,1020.6
2016-12-26T11:48:52.215Z,1020.6
2016-12-26T11:49:55.665Z,1020.6
2016-12-26T11:50:59.149Z,1020.6
2016-12-26T11:52:02.096Z,1020.6
2016-12-26T11:53:05.546Z,1020.6
2016-12-26T11:54:09.004Z,1020.6
2016-12-26T11:55:12.452Z,1020.7
2016-12-26T11:56:15.396Z,1020.6
2016-12-26T11:57:18.848Z,1020.6
2016-12-26T11:58:22.295Z,1020.6
2016-12-26T11:59:25.747Z,1020.6
2016-12-26T12:00:28.695Z,1020.5
2016-12-26T12:01:32.155Z,1020.6
2016-12-26T12:02:35.602Z,1020.6
2016-12-26T12:03:39.054Z,1020.6
2016-12-26T12:04:42.510Z,1020.6
2016-12-26T12:05:45.467Z,1020.4
2016-12-26T12:06:48.924Z,1020.5
2016-12-26T12:07:52.381Z,1020.5
2016-12-26T12:08:55.462Z,1020.5
2016-12-26T12:09:58.914Z,1020.5
2016-12-26T12:11:02.370Z,1020.6
2016-12-26T12:13:08.726Z,1020.6
2016-12-26T12:14:12.181Z,1020.6
2016-12-26T12:15:15.634Z,1020.6
2016-12-26T12:16:19.092Z,1020.5
2016-12-26T12:17:22.544Z,1020.5
2016-12-26T12:18:25.492Z,1020.5
2016-12-26T12:19:28.949Z,1020.5
2016-12-26T12:20:32.403Z,1020.4
2016-12-26T12:21:35.856Z,1020.4
2016-12-26T12:22:38.805Z,1020.4
2016-12-26T12:23:42.267Z,1020.5
2016-12-26T12:24:45.721Z,1020.6
2016-12-26T12:25:49.176Z,1020.5
2016-12-26T12:26:52.133Z,1020.6
2016-12-26T12:27:55.582Z,1020.6
2016-12-26T12:28:59.033Z,1020.7
2016-12-26T12:30:02.481Z,1020.7
2016-12-26T12:31:05.931Z,1020.7
2016-12-26T12:32:08.881Z,1020.8
2016-12-26T12:33:12.331Z,1020.8
2016-12-26T12:34:15.780Z,1020.8
2016-12-26T12:35:19.235Z,1021.2
2016-12-26T12:36:22.189Z,1021.5
2016-12-26T12:37:25.641Z,1021.6
2016-12-26T12:38:29.094Z,1021.8
2016-12-26T12:39:32.540Z,1022.2
2016-12-26T12:40:35.998Z,1022.2
2016-12-26T12:41:38.948Z,1022.2
2016-12-26T12:42:42.417Z,1022.2
2016-12-26T12:43:45.504Z,1022.3
2016-12-26T12:44:48.951Z,1022.3
2016-12-26T12:45:52.411Z,1022.4
2016-12-26T12:46:55.865Z,1022.5
2016-12-26T12:47:58.810Z,1022.5
2016-12-26T12:49:02.260Z,1022.5
2016-12-26T12:50:05.713Z,1022.5
2016-12-26T12:51:09.167Z,1022.6
2016-12-26T12:52:12.117Z,1022.6
2016-12-26T12:53:15.564Z,1022.8
2016-12-26T12:54:19.021Z,1022.6
2016-12-26T12:55:21.965Z,1022.8
2016-12-26T12:56:25.448Z,1022.8
2016-12-26T12:57:29.034Z,1022.9
2016-12-26T12:58:31.978Z,1023
2016-12-26T12:59:35.434Z,1022.9
2016-12-26T13:00:38.884Z,1023
2016-12-26T13:01:41.833Z,1022.9
2016-12-26T13:02:45.287Z,1023
2016-12-26T13:03:48.745Z,1022.9
2016-12-26T13:04:51.693Z,1023
2016-12-26T13:05:55.141Z,1023.1
2016-12-26T13:06:58.593Z,1022.9
2016-12-26T13:08:01.539Z,1022.9
2016-12-26T13:09:04.989Z,1023
2016-12-26T13:10:08.443Z,1023.3
2016-12-26T13:11:11.396Z,1023
2016-12-26T13:12:14.847Z,1023
2016-12-26T13:13:18.320Z,1023
2016-12-26T13:14:21.274Z,1023
2016-12-26T13:15:24.726Z,1023.1
2016-12-26T13:16:28.180Z,1023
2016-12-26T13:17:31.131Z,1022.8
2016-12-26T13:18:34.585Z,1022.7
2016-12-26T13:19:38.034Z,1022.6
2016-12-26T13:20:41.013Z,1022.6
2016-12-26T13:21:44.465Z,1022.5
2016-12-26T13:22:47.918Z,1022.4
2016-12-26T13:23:50.873Z,1022.3
2016-12-26T13:24:54.350Z,1022.3
2016-12-26T13:25:57.300Z,1022.2
2016-12-26T13:28:03.940Z,1022.3
2016-12-26T13:29:07.386Z,1022.2
2016-12-26T13:30:10.832Z,1022.2
2016-12-26T13:31:13.783Z,1022.2
2016-12-26T13:32:17.233Z,1022.3
2016-12-26T13:33:20.686Z,1022.4
2016-12-26T13:34:23.631Z,1022.3
2016-12-26T13:35:27.077Z,1022.4
2016-12-26T13:36:30.529Z,1022.5
2016-12-26T13:37:33.481Z,1022.5
2016-12-26T13:39:40.346Z,1022.5
2016-12-26T13:40:43.288Z,1022.6